createdAt,value
2019-05-03T00:00:09.354Z,64.89
2019-05-03T00:01:09.371Z,64.98
2019-05-03T00:02:09.352Z,65.08
2019-05-03T00:03:09.339Z,65.08
2019-05-03T00:04:09.350Z,65.08
2019-05-03T00:05:09.319Z,65.37
2019-05-03T00:06:09.320Z,65.37
2019-05-03T00:07:09.310Z,65.56
2019-05-03T00:08:09.304Z,65.46
2019-05-03T00:09:09.298Z,65.46
2019-05-03T00:10:09.293Z,65.84
2019-05-03T00:11:09.278Z,65.27
2019-05-03T00:12:09.271Z,65.37
2019-05-03T00:13:09.267Z,65.94
2019-05-03T00:14:09.258Z,65.37
2019-05-03T00:15:09.255Z,65.84
2019-05-03T00:16:09.250Z,65.94
2019-05-03T00:17:09.237Z,65.66
2019-05-03T00:18:09.229Z,65.75
2019-05-03T00:19:09.242Z,65.94
2019-05-03T00:20:09.233Z,65.66
2019-05-03T00:21:09.220Z,65.66
2019-05-03T00:22:09.209Z,66.14
2019-05-03T00:23:09.203Z,65.84
2019-05-03T00:24:09.192Z,65.84
2019-05-03T00:25:09.186Z,65.75
2019-05-03T00:26:09.174Z,65.94
2019-05-03T00:27:09.175Z,65.66
2019-05-03T00:28:09.178Z,66.23
2019-05-03T00:29:09.164Z,65.84
2019-05-03T00:30:09.154Z,65.75
2019-05-03T00:31:09.147Z,65.84
2019-05-03T00:32:09.134Z,65.75
2019-05-03T00:33:09.135Z,65.84
2019-05-03T00:34:09.127Z,65.84
2019-05-03T00:35:09.118Z,66.04
2019-05-03T00:36:09.108Z,65.56
2019-05-03T00:37:09.099Z,65.56
2019-05-03T00:38:09.094Z,65.75
2019-05-03T00:39:09.093Z,65.66
2019-05-03T00:40:09.086Z,65.75
2019-05-03T00:41:09.081Z,65.75
2019-05-03T00:42:09.077Z,66.04
2019-05-03T00:43:09.065Z,65.94
2019-05-03T00:44:09.054Z,65.56
2019-05-03T00:45:09.045Z,65.84
2019-05-03T00:46:09.041Z,65.84
2019-05-03T00:47:09.040Z,65.84
2019-05-03T00:48:09.032Z,65.94
2019-05-03T00:49:09.020Z,65.75
2019-05-03T00:50:09.013Z,65.84
2019-05-03T00:51:09.010Z,65.84
2019-05-03T00:52:09.007Z,66.04
2019-05-03T00:53:08.997Z,65.84
2019-05-03T00:54:08.994Z,65.75
2019-05-03T00:55:16.071Z,66.14
2019-05-03T00:56:08.972Z,65.66
2019-05-03T00:57:08.963Z,65.94
2019-05-03T00:58:08.959Z,65.66
2019-05-03T00:59:08.961Z,65.75
2019-05-03T01:00:08.957Z,65.66
2019-05-03T01:01:08.944Z,65.56
2019-05-03T01:02:08.939Z,65.66
2019-05-03T01:03:08.924Z,65.75
2019-05-03T01:04:08.916Z,65.75
2019-05-03T01:05:08.915Z,65.84
2019-05-03T01:06:08.921Z,65.84
2019-05-03T01:07:08.893Z,65.66
2019-05-03T01:08:08.893Z,65.75
2019-05-03T01:09:08.895Z,65.66
2019-05-03T01:10:08.887Z,65.66
2019-05-03T01:11:08.874Z,65.75
2019-05-03T01:12:08.867Z,65.56
2019-05-03T01:13:08.869Z,65.56
2019-05-03T01:14:08.870Z,65.56
2019-05-03T01:15:08.844Z,65.75
2019-05-03T01:16:08.835Z,65.81
2019-05-03T01:17:08.826Z,65.94
2019-05-03T01:18:08.831Z,65.56
2019-05-03T01:19:08.820Z,65.66
2019-05-03T01:20:08.808Z,65.56
2019-05-03T01:21:08.800Z,65.56
2019-05-03T01:22:08.801Z,65.56
2019-05-03T01:23:08.797Z,65.75
2019-05-03T01:24:08.785Z,65.84
2019-05-03T01:25:08.778Z,65.66
2019-05-03T01:26:08.768Z,65.84
2019-05-03T01:27:08.760Z,65.56
2019-05-03T01:28:08.755Z,65.75
2019-05-03T01:29:08.750Z,65.84
2019-05-03T01:30:08.738Z,65.56
2019-05-03T01:31:08.743Z,65.66
2019-05-03T01:32:08.730Z,65.84
2019-05-03T01:33:08.731Z,66.14
2019-05-03T01:34:08.717Z,65.94
2019-05-03T01:35:08.709Z,65.66
2019-05-03T01:36:08.699Z,65.94
2019-05-03T01:37:08.695Z,65.94
2019-05-03T01:38:08.688Z,65.66
2019-05-03T01:39:08.676Z,65.75
2019-05-03T01:40:08.669Z,65.75
2019-05-03T01:41:08.670Z,65.75
2019-05-03T01:42:08.659Z,65.66
2019-05-03T01:43:08.654Z,65.84
2019-05-03T01:44:08.678Z,65.66
2019-05-03T01:45:08.643Z,66.04
2019-05-03T01:46:08.637Z,65.75
2019-05-03T01:47:08.623Z,66.04
2019-05-03T01:48:08.620Z,65.75
2019-05-03T01:49:08.612Z,65.94
2019-05-03T01:50:08.602Z,65.94
2019-05-03T01:51:08.595Z,65.94
2019-05-03T01:52:08.592Z,65.81
2019-05-03T01:53:08.581Z,65.75
2019-05-03T01:54:08.571Z,65.75
2019-05-03T01:55:08.577Z,66.04
2019-05-03T01:56:08.588Z,66.04
2019-05-03T01:57:08.557Z,65.84
2019-05-03T01:58:08.551Z,65.84
2019-05-03T01:59:08.539Z,65.66
2019-05-03T02:00:08.530Z,65.56
2019-05-03T02:01:08.523Z,65.75
2019-05-03T02:02:08.516Z,65.75
2019-05-03T02:03:08.516Z,65.75
2019-05-03T02:04:08.508Z,65.81
2019-05-03T02:05:08.506Z,65.81
2019-05-03T02:06:08.496Z,66.04
2019-05-03T02:07:08.485Z,65.72
2019-05-03T02:08:08.479Z,65.72
2019-05-03T02:09:08.490Z,65.75
2019-05-03T02:10:08.464Z,65.91
2019-05-03T02:11:08.482Z,65.75
2019-05-03T02:12:08.446Z,65.37
2019-05-03T02:13:08.439Z,65.46
2019-05-03T02:14:08.433Z,65.72
2019-05-03T02:15:08.437Z,65.84
2019-05-03T02:16:08.426Z,66.00
2019-05-03T02:17:08.416Z,65.91
2019-05-03T02:18:08.414Z,65.66
2019-05-03T02:19:08.402Z,66.00
2019-05-03T02:20:08.394Z,66.10
2019-05-03T02:21:08.389Z,65.91
2019-05-03T02:22:08.377Z,65.81
2019-05-03T02:23:08.379Z,66.10
2019-05-03T02:24:08.373Z,66.00
2019-05-03T02:25:08.357Z,66.00
2019-05-03T02:26:08.357Z,66.10
2019-05-03T02:27:08.353Z,65.81
2019-05-03T02:28:08.345Z,65.81
2019-05-03T02:29:08.340Z,65.33
2019-05-03T02:30:08.329Z,66.00
2019-05-03T02:31:08.320Z,65.81
2019-05-03T02:32:08.310Z,65.81
2019-05-03T02:33:08.324Z,65.94
2019-05-03T02:34:08.299Z,66.10
2019-05-03T02:35:08.294Z,65.62
2019-05-03T02:36:08.286Z,65.81
2019-05-03T02:37:08.288Z,65.91
2019-05-03T02:38:08.271Z,65.81
2019-05-03T02:39:08.279Z,65.62
2019-05-03T02:40:08.255Z,65.72
2019-05-03T02:41:08.258Z,66.00
2019-05-03T02:42:11.628Z,65.91
2019-05-03T02:43:08.240Z,65.62
2019-05-03T02:44:08.229Z,65.53
2019-05-03T02:45:08.224Z,65.53
2019-05-03T02:46:08.217Z,65.53
2019-05-03T02:47:08.207Z,65.53
2019-05-03T02:48:08.204Z,65.53
2019-05-03T02:49:08.197Z,65.53
2019-05-03T02:50:08.210Z,65.81
2019-05-03T02:51:08.173Z,66.00
2019-05-03T02:52:08.168Z,65.81
2019-05-03T02:53:08.182Z,65.53
2019-05-03T02:54:08.159Z,65.53
2019-05-03T02:55:08.164Z,65.33
2019-05-03T02:56:18.234Z,65.66
2019-05-03T02:57:08.137Z,65.33
2019-05-03T02:58:08.127Z,65.53
2019-05-03T02:59:08.125Z,65.53
2019-05-03T03:00:08.129Z,65.53
2019-05-03T03:01:08.121Z,65.33
2019-05-03T03:02:08.107Z,65.62
2019-05-03T03:03:08.090Z,65.53
2019-05-03T03:04:08.088Z,65.33
2019-05-03T03:05:08.082Z,65.62
2019-05-03T03:06:08.075Z,65.53
2019-05-03T03:07:08.070Z,65.23
2019-05-03T03:08:08.063Z,65.53
2019-05-03T03:09:08.086Z,65.53
2019-05-03T03:10:08.050Z,65.43
2019-05-03T03:11:08.052Z,65.62
2019-05-03T03:12:08.054Z,65.91
2019-05-03T03:13:08.038Z,65.53
2019-05-03T03:14:08.019Z,65.53
2019-05-03T03:15:08.021Z,65.53
2019-05-03T03:16:08.005Z,65.33
2019-05-03T03:17:07.998Z,65.53
2019-05-03T03:18:07.990Z,65.43
2019-05-03T03:19:07.994Z,65.53
2019-05-03T03:20:07.980Z,65.43
2019-05-03T03:21:07.973Z,65.43
2019-05-03T03:22:07.965Z,65.53
2019-05-03T03:23:07.954Z,65.33
2019-05-03T03:24:07.944Z,65.33
2019-05-03T03:25:07.943Z,65.33
2019-05-03T03:26:07.942Z,65.43
2019-05-03T03:27:07.933Z,65.43
2019-05-03T03:28:07.926Z,65.33
2019-05-03T03:29:07.916Z,65.33
2019-05-03T03:30:08.168Z,65.33
2019-05-03T03:31:08.620Z,65.33
2019-05-03T03:32:09.450Z,65.43
2019-05-03T03:33:09.075Z,65.53
2019-05-03T03:34:08.623Z,65.43
2019-05-03T03:35:12.035Z,65.33
2019-05-03T03:36:37.858Z,65.53
2019-05-03T03:37:10.219Z,65.53
2019-05-03T03:38:07.849Z,65.33
2019-05-03T03:39:07.845Z,65.62
2019-05-03T03:40:07.835Z,65.05
2019-05-03T03:41:07.840Z,65.43
2019-05-03T03:42:07.820Z,65.33
2019-05-03T03:43:07.816Z,65.53
2019-05-03T03:44:07.811Z,65.33
2019-05-03T03:45:07.803Z,64.98
2019-05-03T03:46:07.795Z,64.69
2019-05-03T03:47:07.788Z,64.31
2019-05-03T03:48:07.783Z,64.12
2019-05-03T03:49:07.845Z,64.31
2019-05-03T03:50:07.803Z,64.02
2019-05-03T03:51:07.760Z,63.89
2019-05-03T03:52:07.747Z,63.92
2019-05-03T03:53:07.748Z,64.22
2019-05-03T03:54:07.734Z,63.83
2019-05-03T03:55:07.739Z,64.31
2019-05-03T03:56:07.723Z,63.83
2019-05-03T03:57:08.340Z,63.73
2019-05-03T03:58:07.709Z,63.73
2019-05-03T03:59:07.695Z,64.50
2019-05-03T04:00:07.708Z,64.31
2019-05-03T04:01:07.689Z,63.92
2019-05-03T04:02:07.682Z,64.12
2019-05-03T04:03:07.692Z,64.50
2019-05-03T04:04:07.661Z,64.12
2019-05-03T04:05:07.679Z,63.54
2019-05-03T04:06:07.645Z,64.12
2019-05-03T04:07:07.656Z,64.31
2019-05-03T04:08:07.641Z,64.40
2019-05-03T04:09:07.636Z,63.83
2019-05-03T04:10:07.633Z,63.54
2019-05-03T04:11:07.609Z,63.92
2019-05-03T04:12:07.609Z,64.22
2019-05-03T04:13:07.607Z,64.22
2019-05-03T04:14:07.595Z,64.79
2019-05-03T04:15:07.593Z,64.12
2019-05-03T04:16:07.582Z,64.22
2019-05-03T04:17:07.570Z,63.73
2019-05-03T04:18:07.564Z,63.73
2019-05-03T04:19:07.560Z,64.31
2019-05-03T04:20:07.557Z,64.22
2019-05-03T04:21:07.559Z,63.73
2019-05-03T04:22:07.545Z,64.02
2019-05-03T04:23:07.526Z,64.40
2019-05-03T04:24:07.542Z,63.92
2019-05-03T04:25:07.513Z,64.02
2019-05-03T04:26:07.502Z,64.12
2019-05-03T04:27:18.026Z,64.02
2019-05-03T04:28:07.512Z,64.02
2019-05-03T04:29:07.503Z,63.64
2019-05-03T04:30:07.483Z,63.15
2019-05-03T04:31:07.473Z,62.48
2019-05-03T04:32:07.465Z,61.71
2019-05-03T04:33:07.466Z,60.75
2019-05-03T04:34:07.456Z,60.56
2019-05-03T04:35:07.447Z,59.69
2019-05-03T04:36:07.437Z,59.22
2019-05-03T04:37:07.434Z,58.73
2019-05-03T04:38:07.424Z,58.06
2019-05-03T04:39:07.421Z,57.29
2019-05-03T04:40:07.415Z,57.10
2019-05-03T04:41:07.424Z,56.43
2019-05-03T04:42:07.403Z,56.23
2019-05-03T04:43:07.393Z,55.66
2019-05-03T04:44:07.387Z,55.56
2019-05-03T04:45:07.390Z,54.79
2019-05-03T04:46:07.389Z,54.69
2019-05-03T04:47:07.370Z,53.83
2019-05-03T04:48:07.371Z,54.02
2019-05-03T04:49:07.359Z,53.74
2019-05-03T04:50:07.346Z,53.23
2019-05-03T04:51:07.351Z,52.77
2019-05-03T04:52:07.339Z,52.36
2019-05-03T04:53:07.357Z,52.10
2019-05-03T04:54:07.334Z,51.53
2019-05-03T04:55:07.324Z,51.50
2019-05-03T04:56:07.308Z,51.33
2019-05-03T04:57:07.341Z,51.31
2019-05-03T04:58:07.310Z,51.72
2019-05-03T04:59:07.286Z,51.23
2019-05-03T05:00:11.209Z,51.21
2019-05-03T05:01:07.306Z,50.92
2019-05-03T05:02:07.279Z,50.46
2019-05-03T05:03:07.272Z,50.44
2019-05-03T05:04:07.246Z,50.54
2019-05-03T05:05:07.250Z,50.54
2019-05-03T05:06:07.250Z,50.34
2019-05-03T05:07:07.248Z,49.99
2019-05-03T05:08:07.247Z,50.08
2019-05-03T05:09:07.210Z,49.99
2019-05-03T05:10:07.213Z,49.41
2019-05-03T05:11:10.399Z,49.60
2019-05-03T05:12:07.199Z,49.38
2019-05-03T05:13:07.196Z,49.00
2019-05-03T05:14:07.186Z,49.31
2019-05-03T05:15:07.173Z,49.02
2019-05-03T05:16:07.175Z,49.12
2019-05-03T05:17:07.174Z,49.41
2019-05-03T05:18:07.159Z,49.12
2019-05-03T05:19:07.150Z,49.87
2019-05-03T05:20:07.143Z,50.08
2019-05-03T05:21:07.131Z,50.46
2019-05-03T05:22:07.132Z,50.76
2019-05-03T05:23:07.134Z,51.43
2019-05-03T05:24:07.118Z,50.85
2019-05-03T05:25:07.111Z,51.33
2019-05-03T05:26:07.104Z,52.48
2019-05-03T05:27:07.094Z,52.20
2019-05-03T05:28:07.085Z,52.00
2019-05-03T05:29:07.090Z,52.10
2019-05-03T05:30:07.070Z,52.00
2019-05-03T05:31:07.072Z,52.39
2019-05-03T05:32:07.066Z,52.68
2019-05-03T05:33:08.864Z,53.06
2019-05-03T05:34:08.936Z,52.68
2019-05-03T05:35:07.039Z,53.16
2019-05-03T05:36:07.030Z,53.16
2019-05-03T05:37:07.029Z,53.83
2019-05-03T05:38:07.022Z,53.54
2019-05-03T05:39:07.011Z,54.22
2019-05-03T05:40:07.007Z,54.12
2019-05-03T05:41:06.999Z,54.31
2019-05-03T05:42:06.991Z,54.31
2019-05-03T05:43:07.009Z,54.50
2019-05-03T05:44:06.981Z,54.50
2019-05-03T05:45:06.989Z,54.69
2019-05-03T05:46:06.969Z,54.60
2019-05-03T05:47:06.957Z,54.69
2019-05-03T05:48:06.961Z,54.69
2019-05-03T05:49:06.947Z,55.18
2019-05-03T05:50:09.091Z,55.37
2019-05-03T05:51:08.809Z,54.99
2019-05-03T05:52:06.929Z,54.79
2019-05-03T05:53:06.928Z,55.46
2019-05-03T05:54:06.911Z,54.79
2019-05-03T05:55:06.908Z,54.99
2019-05-03T05:56:06.906Z,55.18
2019-05-03T05:57:08.439Z,55.08
2019-05-03T05:58:08.317Z,55.37
2019-05-03T05:59:06.874Z,55.11
2019-05-03T06:00:06.869Z,55.40
2019-05-03T06:01:06.863Z,55.49
2019-05-03T06:02:06.857Z,55.68
2019-05-03T06:03:06.856Z,55.56
2019-05-03T06:04:06.847Z,55.56
2019-05-03T06:05:06.844Z,55.18
2019-05-03T06:06:06.836Z,55.08
2019-05-03T06:07:06.824Z,54.69
2019-05-03T06:08:06.816Z,54.31
2019-05-03T06:09:06.814Z,53.83
2019-05-03T06:10:06.808Z,54.02
2019-05-03T06:11:06.797Z,54.02
2019-05-03T06:12:06.793Z,53.74
2019-05-03T06:13:06.783Z,53.64
2019-05-03T06:14:06.775Z,53.74
2019-05-03T06:15:06.776Z,54.02
2019-05-03T06:16:06.773Z,54.12
2019-05-03T06:17:06.764Z,53.83
2019-05-03T06:18:06.769Z,54.02
2019-05-03T06:19:06.763Z,54.12
2019-05-03T06:20:06.735Z,53.83
2019-05-03T06:21:06.732Z,54.12
2019-05-03T06:22:06.749Z,54.12
2019-05-03T06:23:06.728Z,53.92
2019-05-03T06:24:06.718Z,54.12
2019-05-03T06:25:06.795Z,53.92
2019-05-03T06:26:06.698Z,54.02
2019-05-03T06:27:06.693Z,53.83
2019-05-03T06:28:17.669Z,53.92
2019-05-03T06:29:06.683Z,54.12
2019-05-03T06:30:06.711Z,53.83
2019-05-03T06:31:06.661Z,53.83
2019-05-03T06:32:06.652Z,53.83
2019-05-03T06:33:06.645Z,53.92
2019-05-03T06:34:06.646Z,54.02
2019-05-03T06:35:06.668Z,53.92
2019-05-03T06:36:06.640Z,54.02
2019-05-03T06:37:06.660Z,54.02
2019-05-03T06:38:06.637Z,53.92
2019-05-03T06:39:08.302Z,54.50
2019-05-03T06:40:06.601Z,54.50
2019-05-03T06:41:06.607Z,54.79
2019-05-03T06:42:09.843Z,54.31
2019-05-03T06:43:09.825Z,54.89
2019-05-03T06:44:06.572Z,54.63
2019-05-03T06:45:10.377Z,54.63
2019-05-03T06:46:06.563Z,54.99
2019-05-03T06:47:10.363Z,54.69
2019-05-03T06:48:06.554Z,54.82
2019-05-03T06:49:10.063Z,55.11
2019-05-03T06:50:06.532Z,54.79
2019-05-03T06:51:11.004Z,55.30
2019-05-03T06:52:06.545Z,55.11
2019-05-03T06:53:12.665Z,54.82
2019-05-03T06:54:06.566Z,55.01
2019-05-03T06:55:10.595Z,55.20
2019-05-03T06:56:06.501Z,55.30
2019-05-03T06:57:09.454Z,55.11
2019-05-03T06:58:06.478Z,55.11
2019-05-03T06:59:06.481Z,55.08
2019-05-03T07:00:06.466Z,55.30
2019-05-03T07:01:06.461Z,55.68
2019-05-03T07:02:06.452Z,55.59
2019-05-03T07:03:06.445Z,55.49
2019-05-03T07:04:06.438Z,55.68
2019-05-03T07:05:06.429Z,55.78
2019-05-03T07:06:06.425Z,55.88
2019-05-03T07:07:06.419Z,55.98
2019-05-03T07:08:06.412Z,56.16
2019-05-03T07:09:06.413Z,56.26
2019-05-03T07:10:06.643Z,56.26
2019-05-03T07:11:06.619Z,55.88
2019-05-03T07:12:06.613Z,56.07
2019-05-03T07:13:08.898Z,55.88
2019-05-03T07:14:06.374Z,55.88
2019-05-03T07:15:06.362Z,55.68
2019-05-03T07:16:06.356Z,55.88
2019-05-03T07:17:06.345Z,55.33
2019-05-03T07:18:06.345Z,55.23
2019-05-03T07:19:06.340Z,55.13
2019-05-03T07:20:06.331Z,54.75
2019-05-03T07:21:06.325Z,54.85
2019-05-03T07:22:06.319Z,54.75
2019-05-03T07:23:06.305Z,54.65
2019-05-03T07:24:06.303Z,54.85
2019-05-03T07:25:06.307Z,54.65
2019-05-03T07:26:06.306Z,54.56
2019-05-03T07:27:06.286Z,54.94
2019-05-03T07:28:06.281Z,54.56
2019-05-03T07:29:06.283Z,54.56
2019-05-03T07:30:06.265Z,54.36
2019-05-03T07:31:06.302Z,54.56
2019-05-03T07:32:06.255Z,54.36
2019-05-03T07:33:06.249Z,53.88
2019-05-03T07:34:06.238Z,53.88
2019-05-03T07:35:06.227Z,54.27
2019-05-03T07:36:06.230Z,53.88
2019-05-03T07:37:06.217Z,54.17
2019-05-03T07:38:06.220Z,53.88
2019-05-03T07:39:06.214Z,54.08
2019-05-03T07:40:06.205Z,54.56
2019-05-03T07:41:06.197Z,53.98
2019-05-03T07:42:06.190Z,54.75
2019-05-03T07:43:06.188Z,54.46
2019-05-03T07:44:06.192Z,54.46
2019-05-03T07:45:06.178Z,54.46
2019-05-03T07:46:06.169Z,54.36
2019-05-03T07:47:06.162Z,54.46
2019-05-03T07:48:06.148Z,54.36
2019-05-03T07:49:06.140Z,54.56
2019-05-03T07:50:06.179Z,54.75
2019-05-03T07:51:06.132Z,54.75
2019-05-03T07:52:06.126Z,55.13
2019-05-03T07:53:06.132Z,54.85
2019-05-03T07:54:06.123Z,55.45
2019-05-03T07:55:06.099Z,55.23
2019-05-03T07:56:06.093Z,55.33
2019-05-03T07:57:06.088Z,54.85
2019-05-03T07:58:06.081Z,55.33
2019-05-03T07:59:06.435Z,55.23
2019-05-03T08:00:06.080Z,55.35
2019-05-03T08:01:09.815Z,55.35
2019-05-03T08:02:06.086Z,55.35
2019-05-03T08:03:06.055Z,55.16
2019-05-03T08:04:06.053Z,55.26
2019-05-03T08:05:06.043Z,54.87
2019-05-03T08:06:06.035Z,55.65
2019-05-03T08:07:19.326Z,55.35
2019-05-03T08:08:06.027Z,55.93
2019-05-03T08:09:06.013Z,55.45
2019-05-03T08:10:06.022Z,55.45
2019-05-03T08:11:06.004Z,55.55
2019-05-03T08:12:06.003Z,55.55
2019-05-03T08:13:06.012Z,55.55
2019-05-03T08:14:05.985Z,55.65
2019-05-03T08:15:05.974Z,55.45
2019-05-03T08:16:06.125Z,55.65
2019-05-03T08:17:05.977Z,55.55
2019-05-03T08:18:05.965Z,55.55
2019-05-03T08:19:05.952Z,55.45
2019-05-03T08:20:05.947Z,55.16
2019-05-03T08:21:06.048Z,55.07
2019-05-03T08:22:05.934Z,55.07
2019-05-03T08:23:05.936Z,55.35
2019-05-03T08:24:05.923Z,55.35
2019-05-03T08:25:05.926Z,55.26
2019-05-03T08:26:06.212Z,55.07
2019-05-03T08:27:05.900Z,55.16
2019-05-03T08:28:05.900Z,55.16
2019-05-03T08:29:15.675Z,55.07
2019-05-03T08:30:05.885Z,55.45
2019-05-03T08:31:05.886Z,55.45
2019-05-03T08:32:05.881Z,55.16
2019-05-03T08:33:05.865Z,55.35
2019-05-03T08:34:05.860Z,55.35
2019-05-03T08:35:05.864Z,55.16
2019-05-03T08:36:05.851Z,55.26
2019-05-03T08:37:05.852Z,55.26
2019-05-03T08:38:05.847Z,55.26
2019-05-03T08:39:05.826Z,55.26
2019-05-03T08:40:05.822Z,54.87
2019-05-03T08:41:05.824Z,55.16
2019-05-03T08:42:05.811Z,55.26
2019-05-03T08:43:05.811Z,55.26
2019-05-03T08:44:05.803Z,55.35
2019-05-03T08:45:08.028Z,55.16
2019-05-03T08:46:05.795Z,55.26
2019-05-03T08:47:05.781Z,55.35
2019-05-03T08:48:05.776Z,55.26
2019-05-03T08:49:05.778Z,55.07
2019-05-03T08:50:05.771Z,55.07
2019-05-03T08:51:05.760Z,55.35
2019-05-03T08:52:05.751Z,55.35
2019-05-03T08:53:05.745Z,55.26
2019-05-03T08:54:05.745Z,55.45
2019-05-03T08:55:05.743Z,55.16
2019-05-03T08:56:05.735Z,55.26
2019-05-03T08:57:06.370Z,55.35
2019-05-03T08:58:05.739Z,55.16
2019-05-03T08:59:05.722Z,55.35
2019-05-03T09:00:05.711Z,55.74
2019-05-03T09:01:05.786Z,55.93
2019-05-03T09:02:13.887Z,55.35
2019-05-03T09:03:05.687Z,55.35
2019-05-03T09:04:05.682Z,55.16
2019-05-03T09:05:05.671Z,55.16
2019-05-03T09:06:05.664Z,55.35
2019-05-03T09:07:05.668Z,54.97
2019-05-03T09:08:05.899Z,55.16
2019-05-03T09:09:05.653Z,54.97
2019-05-03T09:10:05.653Z,54.87
2019-05-03T09:11:05.634Z,55.35
2019-05-03T09:12:05.631Z,55.26
2019-05-03T09:13:06.489Z,55.55
2019-05-03T09:14:05.621Z,55.16
2019-05-03T09:15:05.615Z,55.26
2019-05-03T09:16:05.665Z,55.16
2019-05-03T09:17:05.614Z,55.35
2019-05-03T09:18:05.620Z,54.87
2019-05-03T09:19:05.808Z,55.07
2019-05-03T09:20:05.589Z,55.07
2019-05-03T09:21:05.589Z,55.16
2019-05-03T09:22:06.127Z,55.16
2019-05-03T09:23:05.645Z,55.35
2019-05-03T09:24:05.556Z,54.87
2019-05-03T09:25:05.559Z,55.26
2019-05-03T09:26:05.589Z,55.16
2019-05-03T09:27:05.743Z,55.16
2019-05-03T09:28:05.537Z,55.26
2019-05-03T09:29:05.701Z,54.87
2019-05-03T09:30:05.523Z,55.16
2019-05-03T09:31:05.514Z,55.07
2019-05-03T09:32:05.534Z,55.45
2019-05-03T09:33:08.890Z,54.97
2019-05-03T09:34:08.038Z,54.87
2019-05-03T09:35:05.639Z,55.16
2019-05-03T09:36:05.521Z,55.26
2019-05-03T09:37:05.483Z,55.35
2019-05-03T09:38:05.805Z,55.16
2019-05-03T09:39:05.472Z,55.35
2019-05-03T09:40:05.468Z,55.65
2019-05-03T09:41:05.469Z,55.55
2019-05-03T09:42:05.460Z,55.93
2019-05-03T09:43:05.449Z,55.65
2019-05-03T09:44:05.437Z,55.45
2019-05-03T09:45:05.436Z,55.65
2019-05-03T09:46:05.442Z,55.65
2019-05-03T09:47:05.797Z,54.97
2019-05-03T09:48:05.928Z,55.16
2019-05-03T09:49:13.432Z,55.35
2019-05-03T09:50:05.408Z,55.07
2019-05-03T09:51:05.398Z,55.16
2019-05-03T09:52:08.094Z,55.35
2019-05-03T09:53:05.707Z,55.35
2019-05-03T09:54:05.419Z,55.35
2019-05-03T09:55:05.376Z,55.16
2019-05-03T09:56:05.371Z,54.78
2019-05-03T09:57:05.916Z,55.19
2019-05-03T09:58:05.680Z,55.26
2019-05-03T09:59:05.476Z,55.16
2019-05-03T10:00:05.354Z,55.35
2019-05-03T10:01:08.306Z,55.45
2019-05-03T10:02:05.345Z,55.93
2019-05-03T10:03:05.703Z,55.45
2019-05-03T10:04:05.547Z,55.35
2019-05-03T10:05:05.320Z,55.45
2019-05-03T10:06:05.320Z,55.74
2019-05-03T10:07:05.314Z,55.26
2019-05-03T10:08:05.439Z,55.16
2019-05-03T10:09:05.411Z,55.16
2019-05-03T10:10:05.728Z,54.87
2019-05-03T10:11:05.719Z,54.97
2019-05-03T10:12:05.605Z,55.26
2019-05-03T10:13:14.842Z,55.38
2019-05-03T10:14:05.266Z,55.26
2019-05-03T10:15:06.538Z,55.29
2019-05-03T10:16:05.993Z,55.35
2019-05-03T10:17:05.539Z,55.35
2019-05-03T10:18:10.563Z,55.35
2019-05-03T10:19:05.234Z,54.87
2019-05-03T10:20:05.240Z,54.87
2019-05-03T10:21:05.552Z,55.26
2019-05-03T10:22:05.852Z,54.78
2019-05-03T10:23:06.389Z,55.35
2019-05-03T10:24:06.632Z,55.55
2019-05-03T10:25:05.202Z,55.16
2019-05-03T10:26:05.297Z,55.29
2019-05-03T10:27:05.687Z,55.35
2019-05-03T10:28:05.758Z,54.87
2019-05-03T10:29:05.500Z,55.16
2019-05-03T10:30:12.542Z,54.68
2019-05-03T10:31:07.691Z,55.00
2019-05-03T10:32:05.161Z,54.80
2019-05-03T10:33:05.989Z,54.71
2019-05-03T10:34:05.784Z,54.71
2019-05-03T10:35:05.685Z,54.90
2019-05-03T10:36:05.586Z,54.78
2019-05-03T10:37:05.293Z,54.78
2019-05-03T10:38:05.833Z,54.68
2019-05-03T10:39:05.122Z,55.26
2019-05-03T10:40:07.996Z,55.38
2019-05-03T10:41:05.814Z,55.26
2019-05-03T10:42:05.121Z,55.26
2019-05-03T10:43:05.140Z,55.26
2019-05-03T10:44:06.054Z,54.87
2019-05-03T10:45:05.169Z,55.07
2019-05-03T10:46:05.358Z,54.78
2019-05-03T10:47:05.619Z,55.35
2019-05-03T10:48:05.129Z,55.16
2019-05-03T10:49:05.741Z,55.26
2019-05-03T10:50:05.059Z,55.45
2019-05-03T10:51:05.090Z,55.16
2019-05-03T10:52:05.634Z,55.35
2019-05-03T10:53:05.320Z,55.29
2019-05-03T10:54:05.298Z,55.48
2019-05-03T10:55:05.430Z,54.80
2019-05-03T10:56:05.168Z,55.19
2019-05-03T10:57:05.333Z,55.09
2019-05-03T10:58:05.360Z,55.29
2019-05-03T10:59:06.154Z,54.78
2019-05-03T11:00:05.135Z,55.16
2019-05-03T11:01:05.209Z,55.00
2019-05-03T11:02:04.983Z,54.68
2019-05-03T11:03:05.399Z,55.29
2019-05-03T11:04:05.417Z,55.29
2019-05-03T11:05:05.264Z,55.48
2019-05-03T11:06:05.479Z,55.38
2019-05-03T11:07:05.466Z,55.35
2019-05-03T11:08:05.089Z,54.87
2019-05-03T11:09:05.665Z,55.45
2019-05-03T11:10:05.306Z,55.55
2019-05-03T11:11:05.946Z,55.26
2019-05-03T11:12:05.344Z,55.35
2019-05-03T11:13:05.883Z,54.87
2019-05-03T11:14:05.642Z,55.16
2019-05-03T11:15:04.945Z,55.16
2019-05-03T11:16:05.612Z,55.35
2019-05-03T11:17:05.655Z,55.26
2019-05-03T11:18:05.592Z,54.78
2019-05-03T11:19:05.423Z,54.78
2019-05-03T11:20:05.278Z,54.58
2019-05-03T11:21:05.199Z,54.97
2019-05-03T11:22:05.443Z,55.16
2019-05-03T11:23:05.928Z,54.58
2019-05-03T11:24:04.863Z,54.68
2019-05-03T11:25:05.182Z,54.87
2019-05-03T11:26:04.855Z,54.58
2019-05-03T11:27:04.843Z,54.78
2019-05-03T11:28:04.972Z,54.68
2019-05-03T11:29:05.303Z,54.68
2019-05-03T11:30:05.011Z,54.87
2019-05-03T11:31:05.051Z,54.58
2019-05-03T11:32:09.312Z,54.58
2019-05-03T11:33:04.821Z,54.58
2019-05-03T11:34:04.805Z,54.90
2019-05-03T11:35:04.806Z,54.80
2019-05-03T11:36:04.799Z,55.00
2019-05-03T11:37:05.032Z,54.71
2019-05-03T11:38:05.472Z,55.26
2019-05-03T11:39:04.975Z,55.29
2019-05-03T11:40:05.148Z,55.19
2019-05-03T11:41:05.006Z,55.19
2019-05-03T11:42:04.797Z,55.29
2019-05-03T11:43:04.788Z,55.26
2019-05-03T11:44:04.749Z,55.48
2019-05-03T11:45:04.743Z,55.48
2019-05-03T11:46:04.732Z,55.19
2019-05-03T11:47:05.799Z,55.29
2019-05-03T11:48:04.726Z,55.19
2019-05-03T11:49:05.627Z,55.19
2019-05-03T11:50:04.754Z,55.19
2019-05-03T11:51:04.710Z,55.57
2019-05-03T11:52:06.484Z,55.38
2019-05-03T11:53:05.167Z,55.48
2019-05-03T11:54:05.876Z,55.57
2019-05-03T11:55:10.977Z,55.67
2019-05-03T11:56:05.543Z,55.29
2019-05-03T11:57:05.103Z,55.67
2019-05-03T11:58:05.659Z,55.48
2019-05-03T11:59:05.306Z,55.67
2019-05-03T12:00:05.366Z,55.96
2019-05-03T12:01:13.106Z,55.57
2019-05-03T12:02:04.841Z,56.35
2019-05-03T12:03:05.045Z,56.15
2019-05-03T12:04:05.038Z,55.96
2019-05-03T12:05:05.038Z,56.15
2019-05-03T12:06:05.016Z,55.77
2019-05-03T12:07:05.969Z,55.57
2019-05-03T12:08:05.399Z,55.57
2019-05-03T12:09:05.560Z,55.57
2019-05-03T12:10:13.587Z,55.57
2019-05-03T12:11:05.735Z,55.57
2019-05-03T12:12:04.964Z,55.96
2019-05-03T12:13:05.070Z,55.87
2019-05-03T12:14:06.884Z,55.67
2019-05-03T12:15:04.577Z,55.77
2019-05-03T12:16:14.630Z,56.05
2019-05-03T12:17:18.721Z,56.05
2019-05-03T12:18:06.002Z,56.25
2019-05-03T12:19:16.436Z,55.77
2019-05-03T12:20:07.714Z,56.25
2019-05-03T12:21:07.908Z,55.77
2019-05-03T12:22:06.127Z,55.96
2019-05-03T12:23:06.092Z,55.96
2019-05-03T12:24:06.248Z,56.15
2019-05-03T12:25:10.151Z,56.05
2019-05-03T12:26:09.924Z,56.25
2019-05-03T12:27:04.794Z,56.15
2019-05-03T12:28:05.835Z,56.05
2019-05-03T12:29:04.676Z,55.96
2019-05-03T12:30:05.015Z,56.05
2019-05-03T12:31:04.984Z,56.05
2019-05-03T12:32:05.230Z,55.77
2019-05-03T12:33:05.933Z,55.77
2019-05-03T12:34:06.030Z,55.29
2019-05-03T12:35:06.106Z,55.48
2019-05-03T12:36:05.339Z,55.67
2019-05-03T12:37:05.186Z,55.77
2019-05-03T12:38:05.457Z,54.80
2019-05-03T12:39:05.658Z,55.07
2019-05-03T12:40:05.529Z,55.29
2019-05-03T12:41:05.587Z,55.38
2019-05-03T12:42:05.856Z,55.29
2019-05-03T12:43:05.974Z,54.90
2019-05-03T12:44:04.696Z,55.19
2019-05-03T12:45:04.610Z,55.00
2019-05-03T12:46:05.149Z,54.90
2019-05-03T12:47:06.007Z,54.90
2019-05-03T12:48:04.989Z,54.42
2019-05-03T12:49:05.232Z,54.61
2019-05-03T12:50:05.265Z,54.03
2019-05-03T12:51:06.354Z,54.13
2019-05-03T12:52:05.292Z,54.03